createdAt,value
2023-04-29T00:01:18.340Z,11.30
2023-04-29T00:03:47.737Z,12.20
2023-04-29T00:06:16.341Z,11.60
2023-04-29T00:08:44.399Z,11.87
2023-04-29T00:11:12.458Z,11.67
2023-04-29T00:13:41.058Z,11.90
2023-04-29T00:16:10.219Z,11.30
2023-04-29T00:18:38.375Z,11.97
2023-04-29T00:21:07.743Z,12.23
2023-04-29T00:23:36.090Z,11.83
2023-04-29T00:26:04.301Z,12.37
2023-04-29T00:28:32.357Z,12.90
2023-04-29T00:31:00.691Z,13.03
2023-04-29T00:33:28.774Z,12.27
2023-04-29T00:35:57.497Z,13.60
2023-04-29T00:38:26.973Z,12.90
2023-04-29T00:40:55.054Z,12.30
2023-04-29T00:43:23.017Z,12.93
2023-04-29T00:45:51.148Z,13.50
2023-04-29T00:48:19.225Z,13.13
2023-04-29T00:50:47.691Z,12.90
2023-04-29T00:53:15.889Z,12.90
2023-04-29T00:55:45.822Z,12.90
2023-04-29T00:58:13.899Z,13.67
2023-04-29T01:00:44.093Z,13.40
2023-04-29T01:03:12.359Z,13.20
2023-04-29T01:05:40.547Z,12.60
2023-04-29T01:08:27.478Z,12.33
2023-04-29T01:11:09.072Z,13.23
2023-04-29T01:13:44.014Z,12.57
2023-04-29T01:16:19.762Z,12.13
2023-04-29T01:18:55.610Z,13.43
2023-04-29T01:21:23.873Z,12.67
2023-04-29T01:23:56.288Z,13.10
2023-04-29T01:26:24.653Z,12.30
2023-04-29T01:28:59.447Z,13.40
2023-04-29T01:31:33.717Z,12.03
2023-04-29T01:34:09.783Z,12.67
2023-04-29T01:36:48.314Z,12.70
2023-04-29T01:39:26.132Z,13.93
2023-04-29T01:42:04.707Z,12.77
2023-04-29T01:44:35.066Z,12.60
2023-04-29T01:47:03.977Z,12.60
2023-04-29T01:49:36.383Z,13.07
2023-04-29T01:52:05.258Z,12.83
2023-04-29T01:54:36.897Z,12.57
2023-04-29T01:57:05.280Z,12.93
2023-04-29T01:59:33.252Z,13.00
2023-04-29T02:02:01.233Z,12.87
2023-04-29T02:04:29.529Z,12.80
2023-04-29T02:06:57.537Z,12.97
2023-04-29T02:09:25.606Z,12.37
2023-04-29T02:11:54.949Z,12.97
2023-04-29T02:14:22.954Z,13.27
2023-04-29T02:16:51.023Z,13.93
2023-04-29T02:19:19.023Z,13.10
2023-04-29T02:21:47.117Z,13.13
2023-04-29T02:24:15.097Z,12.70
2023-04-29T02:26:43.071Z,13.30
2023-04-29T02:29:12.471Z,13.50
2023-04-29T02:31:40.489Z,12.93
2023-04-29T02:34:08.464Z,12.50
2023-04-29T02:36:36.540Z,12.60
2023-04-29T02:39:05.349Z,12.67
2023-04-29T02:41:33.402Z,12.77
2023-04-29T02:44:01.372Z,12.13
2023-04-29T02:46:32.841Z,12.47
2023-04-29T02:49:01.093Z,12.00
2023-04-29T02:51:29.125Z,12.63
2023-04-29T02:53:57.092Z,13.23
2023-04-29T02:56:25.069Z,11.97
2023-04-29T02:58:53.027Z,12.17
2023-04-29T03:01:21.560Z,12.80
2023-04-29T03:03:51.122Z,12.23
2023-04-29T03:06:19.298Z,12.40
2023-04-29T03:08:47.208Z,12.50
2023-04-29T03:11:15.181Z,12.67
2023-04-29T03:13:43.209Z,12.50
2023-04-29T03:16:11.212Z,13.00
2023-04-29T03:18:39.239Z,13.17
2023-04-29T03:21:08.600Z,12.13
2023-04-29T03:23:36.571Z,13.10
2023-04-29T03:26:04.608Z,11.63
2023-04-29T03:28:32.600Z,12.60
2023-04-29T03:31:01.029Z,11.87
2023-04-29T03:33:29.018Z,12.40
2023-04-29T03:35:57.176Z,12.70
2023-04-29T03:38:26.953Z,12.37
2023-04-29T03:40:54.969Z,12.40
2023-04-29T03:43:22.944Z,11.70
2023-04-29T03:45:51.218Z,12.73
2023-04-29T03:48:20.095Z,12.37
2023-04-29T03:50:48.598Z,12.83
2023-04-29T03:53:16.727Z,13.80
2023-04-29T03:55:46.386Z,13.57
2023-04-29T03:58:14.614Z,13.20
2023-04-29T04:00:42.599Z,13.43
2023-04-29T04:03:10.865Z,12.90
2023-04-29T04:05:38.908Z,12.60
2023-04-29T04:08:07.199Z,11.57
2023-04-29T04:10:35.162Z,11.97
2023-04-29T04:13:04.552Z,11.87
2023-04-29T04:15:32.501Z,12.37
2023-04-29T04:18:00.456Z,12.67
2023-04-29T04:20:28.486Z,11.97
2023-04-29T04:22:56.430Z,12.53
2023-04-29T04:25:24.377Z,12.20
2023-04-29T04:27:52.382Z,12.33
2023-04-29T04:30:21.790Z,12.67
2023-04-29T04:32:49.819Z,12.47
2023-04-29T04:35:18.062Z,12.03
2023-04-29T04:37:46.408Z,11.73
2023-04-29T04:40:14.956Z,12.23
2023-04-29T04:42:42.931Z,12.20
2023-04-29T04:45:11.922Z,12.63
2023-04-29T04:47:42.015Z,12.33
2023-04-29T04:50:10.682Z,12.70
2023-04-29T04:52:38.648Z,11.83
2023-04-29T04:55:07.286Z,12.50
2023-04-29T04:57:35.250Z,12.30
2023-04-29T05:00:04.277Z,12.17
2023-04-29T05:02:32.680Z,11.40
2023-04-29T05:05:02.136Z,11.50
2023-04-29T05:07:30.183Z,12.20
2023-04-29T05:09:58.738Z,11.33
2023-04-29T05:12:30.704Z,11.53
2023-04-29T05:14:59.041Z,11.87
2023-04-29T05:17:27.044Z,11.70
2023-04-29T05:19:55.039Z,11.77
2023-04-29T05:22:24.455Z,11.03
2023-04-29T05:24:54.325Z,11.87
2023-04-29T05:27:22.296Z,12.37
2023-04-29T05:29:50.369Z,11.77
2023-04-29T05:32:18.473Z,11.57
2023-04-29T05:34:46.563Z,11.83
2023-04-29T05:37:14.713Z,11.77
2023-04-29T05:39:44.039Z,11.30
2023-04-29T05:42:11.989Z,11.53
2023-04-29T05:44:40.874Z,10.97
2023-04-29T05:47:08.872Z,11.70
2023-04-29T05:49:36.865Z,10.57
2023-04-29T05:52:06.619Z,11.13
2023-04-29T05:54:35.279Z,10.80
2023-04-29T05:57:05.495Z,10.63
2023-04-29T05:59:34.179Z,11.00
2023-04-29T06:02:03.017Z,10.53
2023-04-29T06:04:31.369Z,10.50
2023-04-29T06:06:59.584Z,11.20
2023-04-29T06:09:28.390Z,10.80
2023-04-29T06:11:57.954Z,11.27
2023-04-29T06:14:27.457Z,11.07
2023-04-29T06:16:56.024Z,11.03
2023-04-29T06:19:24.980Z,11.67
2023-04-29T06:21:52.996Z,11.70
2023-04-29T06:24:20.982Z,11.23
2023-04-29T06:26:48.960Z,11.90
2023-04-29T06:29:17.071Z,10.93
2023-04-29T06:31:46.528Z,13.07
2023-04-29T06:34:14.554Z,12.63
2023-04-29T06:36:42.497Z,14.00
2023-04-29T06:39:10.569Z,14.03
2023-04-29T06:41:38.572Z,12.47
2023-04-29T06:44:06.715Z,12.33
2023-04-29T06:46:34.732Z,13.30
2023-04-29T06:49:04.093Z,11.80
2023-04-29T06:51:32.260Z,11.73
2023-04-29T06:54:00.216Z,11.47
2023-04-29T06:56:28.201Z,13.27
2023-04-29T06:58:56.181Z,14.20
2023-04-29T07:01:24.231Z,13.03
2023-04-29T07:03:52.506Z,13.80
2023-04-29T07:06:21.987Z,12.00
2023-04-29T07:08:50.281Z,11.70
2023-04-29T07:11:18.254Z,11.40
2023-04-29T07:13:46.292Z,12.00
2023-04-29T07:16:18.357Z,12.20
2023-04-29T07:18:46.465Z,11.97
2023-04-29T07:21:14.468Z,11.83
2023-04-29T07:23:43.965Z,10.70
2023-04-29T07:26:13.229Z,10.57
2023-04-29T07:28:41.357Z,10.67
2023-04-29T07:31:09.589Z,10.57
2023-04-29T07:33:37.720Z,10.93
2023-04-29T07:36:07.376Z,11.30
2023-04-29T07:38:36.946Z,11.13
2023-04-29T07:41:06.485Z,11.17
2023-04-29T07:43:34.491Z,11.00
2023-04-29T07:46:02.507Z,11.30
2023-04-29T07:48:30.647Z,11.73
2023-04-29T07:50:58.609Z,11.30
2023-04-29T07:53:26.645Z,11.10
2023-04-29T07:55:54.603Z,12.13
2023-04-29T07:58:23.997Z,12.57
2023-04-29T08:00:52.122Z,12.70
2023-04-29T08:03:20.570Z,13.17
2023-04-29T08:05:48.870Z,13.30
2023-04-29T08:08:16.938Z,13.40
2023-04-29T08:10:44.977Z,13.33
2023-04-29T08:13:13.010Z,12.80
2023-04-29T08:15:42.423Z,13.63
2023-04-29T08:18:10.877Z,12.65
2023-04-29T08:20:38.817Z,13.70
2023-04-29T08:23:06.816Z,12.32
2023-04-29T08:25:34.848Z,12.25
2023-04-29T08:28:03.086Z,11.80
2023-04-29T08:30:31.167Z,11.40
2023-04-29T08:33:00.554Z,11.23
2023-04-29T08:35:28.614Z,10.48
2023-04-29T08:37:56.603Z,10.00
2023-04-29T08:40:24.747Z,9.88
2023-04-29T08:42:54.394Z,9.50
2023-04-29T08:45:26.019Z,8.95
2023-04-29T08:47:55.165Z,8.50
2023-04-29T08:50:25.869Z,9.82
2023-04-29T08:52:53.841Z,9.07
2023-04-29T08:55:21.925Z,9.05
2023-04-29T08:57:51.299Z,8.45
2023-04-29T09:00:20.615Z,8.20
2023-04-29T09:02:51.650Z,9.05
2023-04-29T09:05:20.036Z,7.88
2023-04-29T09:07:51.206Z,8.43
2023-04-29T09:10:20.033Z,7.70
2023-04-29T09:12:48.033Z,8.13
2023-04-29T09:15:16.269Z,8.35
2023-04-29T09:17:46.216Z,7.28
2023-04-29T09:20:31.028Z,8.20
2023-04-29T09:23:02.657Z,8.15
2023-04-29T09:25:31.539Z,8.95
2023-04-29T09:27:59.747Z,9.52
2023-04-29T09:30:28.031Z,9.40
2023-04-29T09:33:07.595Z,9.55
2023-04-29T09:35:36.350Z,9.50
2023-04-29T09:38:13.411Z,10.35
2023-04-29T09:40:57.598Z,10.90
2023-04-29T09:43:27.357Z,10.65
2023-04-29T09:45:55.652Z,11.07
2023-04-29T09:48:23.657Z,10.10
2023-04-29T09:51:02.686Z,10.73
2023-04-29T09:53:32.693Z,10.45
2023-04-29T09:56:02.404Z,10.25
2023-04-29T09:58:34.330Z,9.90
2023-04-29T10:01:03.588Z,10.10
2023-04-29T10:03:35.072Z,9.80
2023-04-29T10:06:05.093Z,9.73
2023-04-29T10:08:35.433Z,9.43
2023-04-29T10:11:06.040Z,9.63
2023-04-29T10:13:38.455Z,9.05
2023-04-29T10:16:27.266Z,9.60
2023-04-29T10:18:57.119Z,8.68
2023-04-29T10:21:29.781Z,9.50
2023-04-29T10:24:01.008Z,8.77
2023-04-29T10:26:32.047Z,9.23
2023-04-29T10:29:01.505Z,10.25
2023-04-29T10:31:30.182Z,10.18
2023-04-29T10:33:59.121Z,10.05
2023-04-29T10:36:28.653Z,9.55
2023-04-29T10:39:01.169Z,9.68
2023-04-29T10:41:35.683Z,9.40
2023-04-29T10:44:04.563Z,9.80
2023-04-29T10:46:32.759Z,10.20
2023-04-29T10:49:03.826Z,10.38
2023-04-29T10:51:33.688Z,10.65
2023-04-29T10:54:07.411Z,10.68
2023-04-29T10:56:43.676Z,11.07
2023-04-29T10:59:14.483Z,10.45
2023-04-29T11:01:44.775Z,10.52
2023-04-29T11:04:13.171Z,11.32
2023-04-29T11:06:43.590Z,11.43
2023-04-29T11:09:15.375Z,10.90
2023-04-29T11:12:01.608Z,10.75
2023-04-29T11:14:32.740Z,10.75
2023-04-29T11:17:03.068Z,10.82
2023-04-29T11:19:35.443Z,11.20
2023-04-29T11:22:12.229Z,10.85
2023-04-29T11:24:52.767Z,10.98
2023-04-29T11:27:25.288Z,11.15
2023-04-29T11:29:58.132Z,10.52
2023-04-29T11:32:27.017Z,10.68
2023-04-29T11:34:55.682Z,10.60
2023-04-29T11:37:25.922Z,10.73
2023-04-29T11:40:00.990Z,10.50
2023-04-29T11:42:29.539Z,9.82
2023-04-29T11:44:59.499Z,8.68
2023-04-29T11:47:29.776Z,9.00
2023-04-29T11:50:05.588Z,9.18
2023-04-29T11:52:34.024Z,9.02
2023-04-29T11:55:03.845Z,8.82
2023-04-29T11:57:32.229Z,8.73
2023-04-29T12:00:00.391Z,8.85
2023-04-29T12:02:31.883Z,8.52
2023-04-29T12:05:01.490Z,8.77
2023-04-29T12:07:30.372Z,8.48
2023-04-29T12:09:58.463Z,9.15
2023-04-29T12:12:29.228Z,8.57
2023-04-29T12:14:57.427Z,8.38
2023-04-29T12:17:26.074Z,8.07
2023-04-29T12:19:54.167Z,8.35
2023-04-29T12:22:22.215Z,7.60
2023-04-29T12:24:50.959Z,8.13
2023-04-29T12:27:19.388Z,8.65
2023-04-29T12:29:48.809Z,8.30
2023-04-29T12:32:19.221Z,8.70
2023-04-29T12:34:47.447Z,8.40
2023-04-29T12:37:16.812Z,8.43
2023-04-29T12:39:44.984Z,7.22
2023-04-29T12:42:17.106Z,7.13
2023-04-29T12:44:48.327Z,7.00
2023-04-29T12:47:17.640Z,7.05
2023-04-29T12:49:50.123Z,7.18
2023-04-29T12:52:18.089Z,6.45
2023-04-29T12:54:46.093Z,6.20
2023-04-29T12:57:14.468Z,6.00
2023-04-29T12:59:42.581Z,6.13
2023-04-29T13:02:12.467Z,6.10
2023-04-29T13:04:40.969Z,6.25
2023-04-29T13:07:09.714Z,6.10
2023-04-29T13:09:38.230Z,6.30
2023-04-29T13:12:09.528Z,5.93
2023-04-29T13:14:37.810Z,6.35
2023-04-29T13:17:06.359Z,6.57
2023-04-29T13:19:50.165Z,6.90
2023-04-29T13:22:19.099Z,6.97
2023-04-29T13:24:47.554Z,8.02
2023-04-29T13:27:15.618Z,7.55
2023-04-29T13:29:43.751Z,8.02
2023-04-29T13:32:11.914Z,8.38
2023-04-29T13:34:43.448Z,7.85
2023-04-29T13:37:11.871Z,8.25
2023-04-29T13:39:39.936Z,7.68
2023-04-29T13:42:08.999Z,8.13
2023-04-29T13:44:51.090Z,9.25
2023-04-29T13:47:25.505Z,8.82
2023-04-29T13:53:10.501Z,8.88
2023-04-29T13:56:11.485Z,8.60
2023-04-29T14:03:05.592Z,7.93
2023-04-29T14:05:35.215Z,7.70
2023-04-29T14:08:03.465Z,8.10
2023-04-29T14:10:31.540Z,7.20
2023-04-29T14:12:59.532Z,7.15
2023-04-29T14:15:27.539Z,6.82
2023-04-29T14:17:55.712Z,6.85
2023-04-29T14:20:23.779Z,7.38
2023-04-29T14:22:53.159Z,7.00
2023-04-29T14:25:21.133Z,7.10
2023-04-29T14:27:49.582Z,7.30
2023-04-29T14:30:17.941Z,6.90
2023-04-29T14:32:46.434Z,6.95
2023-04-29T14:35:15.172Z,7.15
2023-04-29T14:37:43.205Z,7.32
2023-04-29T14:40:13.035Z,7.50
2023-04-29T14:42:41.201Z,6.90
2023-04-29T14:45:10.325Z,7.13
2023-04-29T14:47:38.885Z,6.85
2023-04-29T14:50:08.302Z,7.43
2023-04-29T14:52:36.244Z,7.50
2023-04-29T14:55:04.670Z,8.00
2023-04-29T14:57:34.026Z,8.23
2023-04-29T15:00:02.092Z,8.57
2023-04-29T15:02:30.052Z,8.40
2023-04-29T15:04:58.547Z,8.25
2023-04-29T15:07:26.528Z,9.40
2023-04-29T15:09:55.936Z,9.35
2023-04-29T15:12:24.003Z,9.25
2023-04-29T15:14:53.647Z,8.68
2023-04-29T15:17:21.984Z,9.07
2023-04-29T15:19:50.012Z,9.20
2023-04-29T15:22:18.178Z,9.35
2023-04-29T15:27:16.124Z,9.38
2023-04-29T15:29:44.097Z,8.23
2023-04-29T15:32:13.721Z,8.30
2023-04-29T15:34:42.027Z,8.35
2023-04-29T15:37:09.960Z,8.50
2023-04-29T15:39:37.935Z,8.70
2023-04-29T15:42:06.050Z,8.40
2023-04-29T15:44:34.211Z,8.45
2023-04-29T15:47:02.255Z,8.40
2023-04-29T15:49:31.724Z,8.02
2023-04-29T15:51:59.689Z,8.23
2023-04-29T15:54:27.737Z,8.65
2023-04-29T15:56:56.830Z,8.43
2023-04-29T15:59:24.861Z,8.70
2023-04-29T16:01:53.327Z,8.02
2023-04-29T16:04:21.278Z,8.43
2023-04-29T16:06:51.187Z,8.90
2023-04-29T16:09:19.164Z,8.73
2023-04-29T16:11:47.297Z,9.02
2023-04-29T16:14:15.348Z,9.35
2023-04-29T16:16:43.422Z,10.15
2023-04-29T16:19:11.469Z,15.85
2023-04-29T16:21:39.941Z,16.23
2023-04-29T16:24:09.259Z,17.63
2023-04-29T16:26:38.593Z,17.50
2023-04-29T16:29:06.692Z,17.80
2023-04-29T16:31:34.771Z,17.23
2023-04-29T16:34:03.306Z,18.63
2023-04-29T16:36:32.670Z,17.17
2023-04-29T16:39:00.684Z,17.67
2023-04-29T16:41:30.109Z,16.87
2023-04-29T16:43:58.537Z,15.53
2023-04-29T16:46:26.789Z,14.85
2023-04-29T16:48:56.799Z,12.30
2023-04-29T16:51:26.310Z,13.85
2023-04-29T16:53:54.691Z,12.98
2023-04-29T16:56:22.784Z,13.80
2023-04-29T16:58:53.266Z,14.40
2023-04-29T17:01:21.492Z,13.43
2023-04-29T17:03:50.122Z,14.40
2023-04-29T17:06:18.385Z,13.30
2023-04-29T17:08:47.501Z,13.60
2023-04-29T17:11:18.270Z,12.60
2023-04-29T17:13:46.415Z,13.40
2023-04-29T17:16:15.782Z,12.93
2023-04-29T17:18:43.813Z,12.93
2023-04-29T17:21:11.800Z,13.70
2023-04-29T17:23:39.770Z,14.00
2023-04-29T17:26:08.155Z,14.60
2023-04-29T17:28:36.700Z,13.40
2023-04-29T17:31:06.195Z,11.95
2023-04-29T17:33:35.736Z,12.57
2023-04-29T17:36:04.715Z,12.23
2023-04-29T17:38:33.752Z,10.97
2023-04-29T17:41:02.232Z,10.90
2023-04-29T17:43:33.189Z,11.43
2023-04-29T17:46:01.241Z,11.73
2023-04-29T17:48:29.220Z,11.80
2023-04-29T17:50:58.572Z,11.82
2023-04-29T17:53:28.597Z,11.97
2023-04-29T17:55:56.860Z,10.80
2023-04-29T17:58:24.836Z,11.00
2023-04-29T18:00:53.036Z,10.47
2023-04-29T18:03:21.249Z,10.90
2023-04-29T18:05:49.289Z,9.90
2023-04-29T18:08:18.649Z,11.13
2023-04-29T18:10:46.677Z,10.13
2023-04-29T18:13:14.686Z,10.93
2023-04-29T18:15:42.883Z,10.77
2023-04-29T18:18:10.849Z,10.57
2023-04-29T18:20:40.472Z,10.93
2023-04-29T18:23:08.504Z,11.18
2023-04-29T18:25:39.317Z,11.70
2023-04-29T18:30:41.572Z,12.53
2023-04-29T18:33:09.567Z,12.60
2023-04-29T18:35:37.914Z,12.47
2023-04-29T18:38:06.090Z,13.07
2023-04-29T18:40:36.173Z,13.03
2023-04-29T18:43:05.527Z,13.40
2023-04-29T18:45:33.523Z,13.55
2023-04-29T18:48:05.543Z,12.55
2023-04-29T18:50:33.829Z,13.93
2023-04-29T18:53:02.034Z,13.90
2023-04-29T18:55:30.617Z,13.70
2023-04-29T18:57:58.671Z,13.95
2023-04-29T19:00:28.095Z,13.70
2023-04-29T19:02:56.496Z,13.98
2023-04-29T19:05:24.791Z,15.43
2023-04-29T19:07:52.804Z,14.13
2023-04-29T19:10:20.951Z,16.77
2023-04-29T19:12:48.955Z,17.65
2023-04-29T19:15:17.714Z,19.13
2023-04-29T19:17:47.056Z,18.25
2023-04-29T19:20:15.239Z,18.00
2023-04-29T19:22:43.237Z,17.17
2023-04-29T19:25:11.388Z,17.45
2023-04-29T19:27:40.728Z,17.20
2023-04-29T19:30:10.121Z,17.93
2023-04-29T19:32:38.190Z,17.60
2023-04-29T19:35:08.422Z,16.63
2023-04-29T19:37:36.454Z,17.63
2023-04-29T19:40:04.757Z,16.83
2023-04-29T19:42:32.841Z,16.70
2023-04-29T19:45:00.858Z,16.47
2023-04-29T19:47:28.818Z,17.50
2023-04-29T19:49:56.982Z,17.50
2023-04-29T19:52:26.811Z,16.30
2023-04-29T19:54:54.790Z,14.80
2023-04-29T19:57:22.794Z,13.60
2023-04-29T19:59:50.770Z,12.20
2023-04-29T20:02:19.206Z,12.03
2023-04-29T20:04:48.256Z,11.13
2023-04-29T20:07:16.280Z,11.20
2023-04-29T20:09:45.886Z,10.37
2023-04-29T20:12:13.899Z,9.77
2023-04-29T20:14:41.911Z,9.07
2023-04-29T20:17:09.956Z,7.93
2023-04-29T20:19:37.961Z,7.80
2023-04-29T20:22:06.008Z,7.97
2023-04-29T20:24:33.988Z,8.30
2023-04-29T20:27:04.454Z,8.53
2023-04-29T20:29:32.644Z,8.90
2023-04-29T20:32:00.760Z,9.30
2023-04-29T20:34:28.823Z,9.17
2023-04-29T20:36:56.808Z,9.63
2023-04-29T20:39:25.977Z,10.50
2023-04-29T20:41:56.209Z,9.50
2023-04-29T20:44:25.643Z,10.20
2023-04-29T20:46:54.226Z,10.23
2023-04-29T20:49:22.376Z,10.40
2023-04-29T20:51:50.348Z,10.13
2023-04-29T20:54:18.272Z,9.07
2023-04-29T20:56:46.327Z,10.10
2023-04-29T20:59:14.340Z,10.27
2023-04-29T21:01:45.490Z,11.53
2023-04-29T21:04:13.575Z,11.23
2023-04-29T21:06:41.659Z,11.80
2023-04-29T21:09:10.253Z,12.77
2023-04-29T21:11:38.394Z,13.17
2023-04-29T21:14:06.388Z,13.30
2023-04-29T21:16:34.379Z,14.53
2023-04-29T21:19:03.734Z,13.10
2023-04-29T21:21:31.825Z,14.57
2023-04-29T21:23:59.801Z,14.63
2023-04-29T21:26:27.813Z,15.40
2023-04-29T21:28:55.822Z,14.60
2023-04-29T21:31:23.866Z,15.70
2023-04-29T21:33:51.916Z,15.43
2023-04-29T21:36:21.713Z,16.93
2023-04-29T21:38:49.830Z,16.17
2023-04-29T21:41:22.703Z,17.70
2023-04-29T21:43:51.671Z,17.40
2023-04-29T21:46:20.748Z,18.07
2023-04-29T21:48:48.992Z,16.63
2023-04-29T21:51:18.924Z,17.83
2023-04-29T21:53:48.351Z,17.17
2023-04-29T21:56:16.448Z,19.53
2023-04-29T21:58:44.872Z,19.43
2023-04-29T22:01:26.604Z,19.87
2023-04-29T22:03:54.715Z,18.60
2023-04-29T22:06:22.876Z,17.73
2023-04-29T22:08:52.327Z,17.10
2023-04-29T22:11:21.539Z,16.77
2023-04-29T22:13:49.647Z,15.93
2023-04-29T22:16:18.739Z,15.97
2023-04-29T22:18:46.763Z,15.03
2023-04-29T22:21:14.787Z,15.10
2023-04-29T22:23:43.646Z,15.53
2023-04-29T22:26:12.973Z,15.47
2023-04-29T22:28:40.967Z,15.03
2023-04-29T22:31:08.955Z,15.43
2023-04-29T22:33:37.145Z,14.80
2023-04-29T22:36:05.432Z,13.80
2023-04-29T22:38:34.974Z,14.77
2023-04-29T22:41:02.986Z,14.50
2023-04-29T22:43:32.316Z,16.23
2023-04-29T22:46:00.366Z,14.57
2023-04-29T22:48:28.657Z,15.33
2023-04-29T22:50:59.320Z,14.47
2023-04-29T22:53:27.499Z,15.50
2023-04-29T22:55:57.041Z,14.67
2023-04-29T22:58:26.422Z,16.33
2023-04-29T23:00:57.224Z,15.53
2023-04-29T23:03:25.620Z,15.90
2023-04-29T23:05:58.198Z,16.50
2023-04-29T23:08:26.312Z,16.27
2023-04-29T23:10:54.391Z,16.70
2023-04-29T23:13:22.398Z,16.13
2023-04-29T23:15:50.708Z,16.33
2023-04-29T23:18:20.042Z,17.00
2023-04-29T23:20:48.360Z,16.80
2023-04-29T23:23:16.411Z,17.20
2023-04-29T23:25:45.281Z,17.73
2023-04-29T23:28:14.080Z,17.87
2023-04-29T23:30:42.247Z,17.07
2023-04-29T23:33:10.291Z,17.33
2023-04-29T23:35:39.598Z,15.70
2023-04-29T23:38:07.687Z,17.83
2023-04-29T23:40:35.662Z,17.77
2023-04-29T23:43:03.813Z,18.57
2023-04-29T23:45:31.814Z,19.30
2023-04-29T23:47:59.878Z,19.60
2023-04-29T23:50:28.183Z,20.73
2023-04-29T23:52:57.592Z,19.17
2023-04-29T23:55:25.583Z,20.73
2023-04-29T23:57:53.621Z,20.57
